Locustville, Virginia
Current Conditions -  °F | °C
As of 3:35 PM on Saturday 25 Oct 2014 (Local Time) from KMFV Reporting Station
Clear Clear  
Wind Chill: 68°   Ceiling: Unl
Heat Index: 68°   Visibility: 10mi
Dew Point: 37°   Wind: 8mph
Humidity: 33%   Direction: 260°W
Pressure: 29.84"   Gusts: NA
Location:  37.65°N, 75.68°W
Report Text: KMFV 251935Z AUTO 26007KT 10SM CLR 20/03 A2984 RMK AO2
Loading
Personal Weather Stations






























Interactive Weather Map
Tropical Storm Tracking
New forecast layout! Learn more

10-Day Weather Forecast

Advertisements
Track Severe Weather on mobile